sensor_id;sensor_type;location;lat;lon;timestamp;P1;durP1;ratioP1;P2;durP2;ratioP2
15633;SDS011;14654;48.898;8.308;2023-05-10T00:00:50;0.60;;;0.60;;
15633;SDS011;14654;48.898;8.308;2023-05-10T00:03:15;0.80;;;0.77;;
15633;SDS011;14654;48.898;8.308;2023-05-10T00:05:41;0.90;;;0.53;;
15633;SDS011;14654;48.898;8.308;2023-05-10T00:08:06;0.60;;;0.40;;
15633;SDS011;14654;48.898;8.308;2023-05-10T00:10:31;1.00;;;0.63;;
15633;SDS011;14654;48.898;8.308;2023-05-10T00:12:57;1.57;;;0.70;;
15633;SDS011;14654;48.898;8.308;2023-05-10T00:15:22;0.60;;;0.60;;
15633;SDS011;14654;48.898;8.308;2023-05-10T00:17:47;0.67;;;0.60;;
15633;SDS011;14654;48.898;8.308;2023-05-10T00:20:13;0.63;;;0.53;;
15633;SDS011;14654;48.898;8.308;2023-05-10T00:22:38;0.70;;;0.70;;
15633;SDS011;14654;48.898;8.308;2023-05-10T00:25:03;1.17;;;0.80;;
15633;SDS011;14654;48.898;8.308;2023-05-10T00:27:29;0.70;;;0.70;;
15633;SDS011;14654;48.898;8.308;2023-05-10T00:29:54;2.10;;;0.60;;
15633;SDS011;14654;48.898;8.308;2023-05-10T00:32:20;1.47;;;0.73;;
15633;SDS011;14654;48.898;8.308;2023-05-10T00:34:45;1.10;;;1.00;;
15633;SDS011;14654;48.898;8.308;2023-05-10T00:37:10;1.00;;;0.70;;
15633;SDS011;14654;48.898;8.308;2023-05-10T00:39:36;1.13;;;0.83;;
15633;SDS011;14654;48.898;8.308;2023-05-10T00:42:01;1.30;;;0.80;;
15633;SDS011;14654;48.898;8.308;2023-05-10T00:44:26;0.70;;;0.70;;
15633;SDS011;14654;48.898;8.308;2023-05-10T00:46:52;0.80;;;0.80;;
15633;SDS011;14654;48.898;8.308;2023-05-10T00:49:17;1.70;;;0.83;;
15633;SDS011;14654;48.898;8.308;2023-05-10T00:51:44;1.00;;;0.90;;
15633;SDS011;14654;48.898;8.308;2023-05-10T00:54:13;1.07;;;1.07;;
15633;SDS011;14654;48.898;8.308;2023-05-10T00:56:40;0.90;;;0.90;;
15633;SDS011;14654;48.898;8.308;2023-05-10T00:59:06;0.73;;;0.73;;
15633;SDS011;14654;48.898;8.308;2023-05-10T01:01:35;0.87;;;0.87;;
15633;SDS011;14654;48.898;8.308;2023-05-10T01:04:01;0.90;;;0.90;;
15633;SDS011;14654;48.898;8.308;2023-05-10T01:06:28;0.73;;;0.73;;
15633;SDS011;14654;48.898;8.308;2023-05-10T01:08:53;1.10;;;1.00;;
15633;SDS011;14654;48.898;8.308;2023-05-10T01:11:18;1.07;;;1.00;;
15633;SDS011;14654;48.898;8.308;2023-05-10T01:13:44;1.60;;;1.00;;
15633;SDS011;14654;48.898;8.308;2023-05-10T01:16:17;2.53;;;1.13;;
15633;SDS011;14654;48.898;8.308;2023-05-10T01:18:42;0.80;;;0.77;;
15633;SDS011;14654;48.898;8.308;2023-05-10T01:21:56;0.80;;;0.80;;
15633;SDS011;14654;48.898;8.308;2023-05-10T01:35:06;1.00;;;1.00;;
15633;SDS011;14654;48.898;8.308;2023-05-10T01:38:16;1.10;;;1.00;;
15633;SDS011;14654;48.898;8.308;2023-05-10T01:40:31;1.60;;;1.50;;
15633;SDS011;14654;48.898;8.308;2023-05-10T01:43:02;1.33;;;1.23;;
15633;SDS011;14654;48.898;8.308;2023-05-10T01:45:41;1.30;;;1.20;;
15633;SDS011;14654;48.898;8.308;2023-05-10T01:48:34;1.17;;;1.07;;
15633;SDS011;14654;48.898;8.308;2023-05-10T01:50:59;1.50;;;1.40;;
15633;SDS011;14654;48.898;8.308;2023-05-10T01:53:25;1.13;;;0.93;;
15633;SDS011;14654;48.898;8.308;2023-05-10T01:55:52;1.50;;;1.40;;
15633;SDS011;14654;48.898;8.308;2023-05-10T01:58:21;1.20;;;1.10;;
15633;SDS011;14654;48.898;8.308;2023-05-10T02:00:52;1.30;;;1.20;;
15633;SDS011;14654;48.898;8.308;2023-05-10T02:03:20;1.37;;;1.27;;
15633;SDS011;14654;48.898;8.308;2023-05-10T02:05:48;2.80;;;1.30;;
15633;SDS011;14654;48.898;8.308;2023-05-10T02:08:15;1.40;;;1.30;;
15633;SDS011;14654;48.898;8.308;2023-05-10T02:10:43;1.37;;;1.30;;
15633;SDS011;14654;48.898;8.308;2023-05-10T02:13:10;1.50;;;1.30;;
15633;SDS011;14654;48.898;8.308;2023-05-10T02:15:36;1.37;;;1.27;;
15633;SDS011;14654;48.898;8.308;2023-05-10T02:18:04;1.63;;;1.53;;
15633;SDS011;14654;48.898;8.308;2023-05-10T02:20:31;1.50;;;1.40;;
15633;SDS011;14654;48.898;8.308;2023-05-10T02:22:57;1.30;;;1.20;;
15633;SDS011;14654;48.898;8.308;2023-05-10T02:25:23;1.60;;;1.50;;
15633;SDS011;14654;48.898;8.308;2023-05-10T02:27:50;2.20;;;1.70;;
15633;SDS011;14654;48.898;8.308;2023-05-10T02:30:19;1.67;;;1.57;;
15633;SDS011;14654;48.898;8.308;2023-05-10T02:32:45;3.00;;;1.87;;
15633;SDS011;14654;48.898;8.308;2023-05-10T02:35:12;1.63;;;1.53;;
15633;SDS011;14654;48.898;8.308;2023-05-10T02:37:37;2.00;;;1.80;;
15633;SDS011;14654;48.898;8.308;2023-05-10T02:40:05;1.80;;;1.70;;
15633;SDS011;14654;48.898;8.308;2023-05-10T02:42:32;1.90;;;1.73;;
15633;SDS011;14654;48.898;8.308;2023-05-10T02:45:01;1.80;;;1.70;;
15633;SDS011;14654;48.898;8.308;2023-05-10T02:47:30;1.67;;;1.57;;
15633;SDS011;14654;48.898;8.308;2023-05-10T02:49:56;1.77;;;1.67;;
15633;SDS011;14654;48.898;8.308;2023-05-10T02:52:23;1.83;;;1.70;;
15633;SDS011;14654;48.898;8.308;2023-05-10T02:54:51;2.00;;;1.90;;
15633;SDS011;14654;48.898;8.308;2023-05-10T02:57:22;2.03;;;1.70;;
15633;SDS011;14654;48.898;8.308;2023-05-10T02:59:52;1.77;;;1.67;;
15633;SDS011;14654;48.898;8.308;2023-05-10T03:02:17;1.90;;;1.80;;
15633;SDS011;14654;48.898;8.308;2023-05-10T03:04:43;2.10;;;2.00;;
15633;SDS011;14654;48.898;8.308;2023-05-10T03:07:08;2.40;;;1.60;;
15633;SDS011;14654;48.898;8.308;2023-05-10T03:09:34;1.90;;;1.80;;
15633;SDS011;14654;48.898;8.308;2023-05-10T03:12:01;2.00;;;1.90;;
15633;SDS011;14654;48.898;8.308;2023-05-10T03:17:31;1.90;;;1.70;;
15633;SDS011;14654;48.898;8.308;2023-05-10T03:20:08;2.13;;;2.03;;
15633;SDS011;14654;48.898;8.308;2023-05-10T03:22:41;2.10;;;2.00;;
15633;SDS011;14654;48.898;8.308;2023-05-10T03:25:11;2.13;;;1.70;;
15633;SDS011;14654;48.898;8.308;2023-05-10T03:27:39;2.87;;;1.87;;
15633;SDS011;14654;48.898;8.308;2023-05-10T03:30:07;1.87;;;1.77;;
15633;SDS011;14654;48.898;8.308;2023-05-10T03:32:35;2.23;;;1.87;;
15633;SDS011;14654;48.898;8.308;2023-05-10T03:35:01;1.63;;;1.53;;
15633;SDS011;14654;48.898;8.308;2023-05-10T03:37:34;1.87;;;1.77;;
15633;SDS011;14654;48.898;8.308;2023-05-10T03:40:00;1.70;;;1.60;;
15633;SDS011;14654;48.898;8.308;2023-05-10T03:42:26;1.60;;;1.50;;
15633;SDS011;14654;48.898;8.308;2023-05-10T03:44:51;1.50;;;1.40;;
15633;SDS011;14654;48.898;8.308;2023-05-10T03:47:17;1.77;;;1.67;;
15633;SDS011;14654;48.898;8.308;2023-05-10T03:49:42;1.97;;;1.40;;
15633;SDS011;14654;48.898;8.308;2023-05-10T03:52:07;2.13;;;1.40;;
15633;SDS011;14654;48.898;8.308;2023-05-10T03:54:33;1.57;;;1.47;;
15633;SDS011;14654;48.898;8.308;2023-05-10T03:56:58;1.57;;;1.47;;
15633;SDS011;14654;48.898;8.308;2023-05-10T03:59:23;1.40;;;1.30;;
15633;SDS011;14654;48.898;8.308;2023-05-10T04:01:49;1.60;;;1.50;;
15633;SDS011;14654;48.898;8.308;2023-05-10T04:04:14;2.77;;;1.70;;
15633;SDS011;14654;48.898;8.308;2023-05-10T04:06:40;1.80;;;1.70;;
15633;SDS011;14654;48.898;8.308;2023-05-10T04:09:05;1.80;;;1.70;;
15633;SDS011;14654;48.898;8.308;2023-05-10T04:11:31;1.60;;;1.50;;
15633;SDS011;14654;48.898;8.308;2023-05-10T04:13:56;1.80;;;1.70;;
15633;SDS011;14654;48.898;8.308;2023-05-10T04:16:21;1.60;;;1.50;;
15633;SDS011;14654;48.898;8.308;2023-05-10T04:18:47;2.33;;;1.70;;
15633;SDS011;14654;48.898;8.308;2023-05-10T04:21:13;2.00;;;1.53;;
15633;SDS011;14654;48.898;8.308;2023-05-10T04:23:38;2.20;;;1.73;;
15633;SDS011;14654;48.898;8.308;2023-05-10T04:26:04;1.83;;;1.73;;
15633;SDS011;14654;48.898;8.308;2023-05-10T04:28:29;2.77;;;1.83;;
15633;SDS011;14654;48.898;8.308;2023-05-10T04:31:28;1.80;;;1.70;;
15633;SDS011;14654;48.898;8.308;2023-05-10T04:33:46;1.80;;;1.70;;
15633;SDS011;14654;48.898;8.308;2023-05-10T04:36:12;2.50;;;1.80;;
15633;SDS011;14654;48.898;8.308;2023-05-10T04:38:37;3.40;;;2.00;;
15633;SDS011;14654;48.898;8.308;2023-05-10T04:41:06;3.40;;;2.23;;
15633;SDS011;14654;48.898;8.308;2023-05-10T04:43:33;2.73;;;2.53;;
15633;SDS011;14654;48.898;8.308;2023-05-10T04:45:59;2.20;;;2.00;;
15633;SDS011;14654;48.898;8.308;2023-05-10T04:48:24;2.10;;;2.00;;
15633;SDS011;14654;48.898;8.308;2023-05-10T04:50:50;2.23;;;2.07;;
15633;SDS011;14654;48.898;8.308;2023-05-10T04:53:15;2.47;;;2.27;;
15633;SDS011;14654;48.898;8.308;2023-05-10T04:55:40;2.67;;;2.23;;
15633;SDS011;14654;48.898;8.308;2023-05-10T04:58:05;2.20;;;2.00;;
15633;SDS011;14654;48.898;8.308;2023-05-10T05:00:31;2.37;;;1.97;;
15633;SDS011;14654;48.898;8.308;2023-05-10T05:02:58;1.73;;;1.63;;
15633;SDS011;14654;48.898;8.308;2023-05-10T05:05:23;2.30;;;2.10;;
15633;SDS011;14654;48.898;8.308;2023-05-10T05:07:48;2.47;;;1.97;;
15633;SDS011;14654;48.898;8.308;2023-05-10T05:10:13;2.33;;;2.13;;
15633;SDS011;14654;48.898;8.308;2023-05-10T05:12:39;2.00;;;1.90;;
15633;SDS011;14654;48.898;8.308;2023-05-10T05:15:04;3.90;;;2.13;;
15633;SDS011;14654;48.898;8.308;2023-05-10T05:17:30;2.20;;;1.87;;
15633;SDS011;14654;48.898;8.308;2023-05-10T05:19:56;2.00;;;1.80;;
15633;SDS011;14654;48.898;8.308;2023-05-10T05:22:21;2.37;;;2.10;;
15633;SDS011;14654;48.898;8.308;2023-05-10T05:24:53;2.03;;;1.90;;
15633;SDS011;14654;48.898;8.308;2023-05-10T05:27:20;2.00;;;1.90;;
15633;SDS011;14654;48.898;8.308;2023-05-10T05:29:48;1.77;;;1.53;;
15633;SDS011;14654;48.898;8.308;2023-05-10T05:32:14;1.80;;;1.70;;
15633;SDS011;14654;48.898;8.308;2023-05-10T05:34:39;2.07;;;1.70;;
15633;SDS011;14654;48.898;8.308;2023-05-10T05:37:05;2.23;;;1.73;;
15633;SDS011;14654;48.898;8.308;2023-05-10T05:39:30;2.23;;;1.73;;
15633;SDS011;14654;48.898;8.308;2023-05-10T05:41:56;1.50;;;1.40;;
15633;SDS011;14654;48.898;8.308;2023-05-10T05:44:21;2.30;;;1.50;;
15633;SDS011;14654;48.898;8.308;2023-05-10T05:46:46;2.00;;;1.73;;
15633;SDS011;14654;48.898;8.308;2023-05-10T05:49:11;1.60;;;1.50;;
15633;SDS011;14654;48.898;8.308;2023-05-10T05:51:37;1.63;;;1.53;;
15633;SDS011;14654;48.898;8.308;2023-05-10T05:54:02;1.87;;;1.60;;
15633;SDS011;14654;48.898;8.308;2023-05-10T05:56:29;3.07;;;1.63;;
15633;SDS011;14654;48.898;8.308;2023-05-10T05:58:54;2.83;;;1.70;;
15633;SDS011;14654;48.898;8.308;2023-05-10T06:01:20;2.07;;;1.73;;
15633;SDS011;14654;48.898;8.308;2023-05-10T06:03:45;1.67;;;1.57;;
15633;SDS011;14654;48.898;8.308;2023-05-10T06:06:10;2.00;;;1.70;;
15633;SDS011;14654;48.898;8.308;2023-05-10T06:08:36;1.80;;;1.70;;
15633;SDS011;14654;48.898;8.308;2023-05-10T06:11:01;1.47;;;1.30;;
15633;SDS011;14654;48.898;8.308;2023-05-10T06:13:26;1.60;;;1.50;;
15633;SDS011;14654;48.898;8.308;2023-05-10T06:15:57;2.17;;;1.60;;
15633;SDS011;14654;48.898;8.308;2023-05-10T06:18:25;1.80;;;1.70;;
15633;SDS011;14654;48.898;8.308;2023-05-10T06:20:50;1.53;;;1.33;;
15633;SDS011;14654;48.898;8.308;2023-05-10T06:23:16;2.33;;;1.67;;
15633;SDS011;14654;48.898;8.308;2023-05-10T06:25:42;1.77;;;1.67;;
15633;SDS011;14654;48.898;8.308;2023-05-10T06:28:07;2.17;;;1.60;;
15633;SDS011;14654;48.898;8.308;2023-05-10T06:30:32;1.50;;;1.37;;
15633;SDS011;14654;48.898;8.308;2023-05-10T06:32:58;1.50;;;1.40;;
15633;SDS011;14654;48.898;8.308;2023-05-10T06:35:23;1.73;;;1.40;;
15633;SDS011;14654;48.898;8.308;2023-05-10T06:37:49;2.23;;;1.73;;
15633;SDS011;14654;48.898;8.308;2023-05-10T06:40:15;1.80;;;1.47;;
15633;SDS011;14654;48.898;8.308;2023-05-10T06:42:41;2.60;;;1.40;;
15633;SDS011;14654;48.898;8.308;2023-05-10T06:45:06;3.10;;;1.40;;
15633;SDS011;14654;48.898;8.308;2023-05-10T06:47:33;1.10;;;1.00;;
15633;SDS011;14654;48.898;8.308;2023-05-10T06:49:58;1.50;;;1.10;;
15633;SDS011;14654;48.898;8.308;2023-05-10T06:52:24;1.27;;;0.90;;
15633;SDS011;14654;48.898;8.308;2023-05-10T06:54:49;1.30;;;0.90;;
15633;SDS011;14654;48.898;8.308;2023-05-10T06:57:15;1.67;;;0.90;;
15633;SDS011;14654;48.898;8.308;2023-05-10T06:59:40;1.53;;;1.13;;
15633;SDS011;14654;48.898;8.308;2023-05-10T07:02:05;1.10;;;0.90;;
15633;SDS011;14654;48.898;8.308;2023-05-10T07:04:31;1.67;;;0.90;;
15633;SDS011;14654;48.898;8.308;2023-05-10T07:06:56;1.17;;;1.00;;
15633;SDS011;14654;48.898;8.308;2023-05-10T07:09:22;1.17;;;0.67;;
15633;SDS011;14654;48.898;8.308;2023-05-10T07:11:49;0.70;;;0.70;;
15633;SDS011;14654;48.898;8.308;2023-05-10T07:14:14;1.40;;;0.90;;
15633;SDS011;14654;48.898;8.308;2023-05-10T07:16:40;0.80;;;0.80;;
15633;SDS011;14654;48.898;8.308;2023-05-10T07:19:05;1.03;;;0.60;;
15633;SDS011;14654;48.898;8.308;2023-05-10T07:21:30;0.90;;;0.70;;
15633;SDS011;14654;48.898;8.308;2023-05-10T07:23:56;0.97;;;0.70;;
15633;SDS011;14654;48.898;8.308;2023-05-10T07:26:21;1.60;;;0.70;;
15633;SDS011;14654;48.898;8.308;2023-05-10T07:28:47;1.53;;;0.60;;
15633;SDS011;14654;48.898;8.308;2023-05-10T07:31:12;1.00;;;0.60;;
15633;SDS011;14654;48.898;8.308;2023-05-10T07:33:37;1.43;;;0.90;;
15633;SDS011;14654;48.898;8.308;2023-05-10T07:36:03;1.40;;;1.30;;
15633;SDS011;14654;48.898;8.308;2023-05-10T07:38:28;1.30;;;1.20;;
15633;SDS011;14654;48.898;8.308;2023-05-10T07:40:53;1.87;;;1.77;;
15633;SDS011;14654;48.898;8.308;2023-05-10T07:43:19;2.10;;;1.90;;
15633;SDS011;14654;48.898;8.308;2023-05-10T07:45:44;2.60;;;2.23;;
15633;SDS011;14654;48.898;8.308;2023-05-10T07:48:10;4.10;;;3.70;;
15633;SDS011;14654;48.898;8.308;2023-05-10T07:50:35;3.10;;;2.90;;
15633;SDS011;14654;48.898;8.308;2023-05-10T07:53:00;2.43;;;2.23;;
15633;SDS011;14654;48.898;8.308;2023-05-10T07:55:26;1.83;;;1.70;;
15633;SDS011;14654;48.898;8.308;2023-05-10T07:57:51;1.43;;;1.33;;
15633;SDS011;14654;48.898;8.308;2023-05-10T08:00:17;2.50;;;2.30;;
15633;SDS011;14654;48.898;8.308;2023-05-10T08:02:43;2.17;;;2.07;;
15633;SDS011;14654;48.898;8.308;2023-05-10T08:05:09;1.90;;;1.80;;
15633;SDS011;14654;48.898;8.308;2023-05-10T08:07:34;1.53;;;1.30;;
15633;SDS011;14654;48.898;8.308;2023-05-10T08:10:00;0.80;;;0.80;;
15633;SDS011;14654;48.898;8.308;2023-05-10T08:12:26;1.20;;;1.10;;
15633;SDS011;14654;48.898;8.308;2023-05-10T08:14:51;1.20;;;1.10;;
15633;SDS011;14654;48.898;8.308;2023-05-10T08:17:16;0.90;;;0.77;;
15633;SDS011;14654;48.898;8.308;2023-05-10T08:19:41;0.80;;;0.80;;
15633;SDS011;14654;48.898;8.308;2023-05-10T08:22:07;0.83;;;0.70;;
15633;SDS011;14654;48.898;8.308;2023-05-10T08:24:32;1.13;;;0.83;;
15633;SDS011;14654;48.898;8.308;2023-05-10T08:26:59;2.30;;;0.70;;
15633;SDS011;14654;48.898;8.308;2023-05-10T08:29:25;0.63;;;0.50;;
15633;SDS011;14654;48.898;8.308;2023-05-10T08:31:51;0.80;;;0.80;;
15633;SDS011;14654;48.898;8.308;2023-05-10T08:34:16;1.00;;;0.70;;
15633;SDS011;14654;48.898;8.308;2023-05-10T08:36:41;1.00;;;0.80;;
15633;SDS011;14654;48.898;8.308;2023-05-10T08:39:07;0.80;;;0.40;;
15633;SDS011;14654;48.898;8.308;2023-05-10T08:41:33;1.07;;;0.70;;
15633;SDS011;14654;48.898;8.308;2023-05-10T08:43:58;0.70;;;0.43;;
15633;SDS011;14654;48.898;8.308;2023-05-10T08:46:28;0.90;;;0.60;;
15633;SDS011;14654;48.898;8.308;2023-05-10T08:48:55;2.47;;;0.57;;
15633;SDS011;14654;48.898;8.308;2023-05-10T08:51:24;0.60;;;0.40;;
15633;SDS011;14654;48.898;8.308;2023-05-10T08:53:52;0.40;;;0.40;;
15633;SDS011;14654;48.898;8.308;2023-05-10T08:56:17;1.03;;;0.60;;
15633;SDS011;14654;48.898;8.308;2023-05-10T08:58:44;0.80;;;0.60;;
15633;SDS011;14654;48.898;8.308;2023-05-10T09:01:10;0.70;;;0.40;;
15633;SDS011;14654;48.898;8.308;2023-05-10T09:03:38;0.80;;;0.60;;
15633;SDS011;14654;48.898;8.308;2023-05-10T09:06:03;0.40;;;0.40;;
15633;SDS011;14654;48.898;8.308;2023-05-10T09:08:29;1.03;;;0.53;;
15633;SDS011;14654;48.898;8.308;2023-05-10T09:10:56;0.97;;;0.57;;
15633;SDS011;14654;48.898;8.308;2023-05-10T09:13:21;1.10;;;0.60;;
15633;SDS011;14654;48.898;8.308;2023-05-10T09:15:48;1.83;;;0.60;;
15633;SDS011;14654;48.898;8.308;2023-05-10T09:18:13;0.70;;;0.43;;
15633;SDS011;14654;48.898;8.308;2023-05-10T09:20:39;0.73;;;0.60;;
15633;SDS011;14654;48.898;8.308;2023-05-10T09:23:05;0.80;;;0.50;;
15633;SDS011;14654;48.898;8.308;2023-05-10T09:25:30;1.00;;;0.60;;
15633;SDS011;14654;48.898;8.308;2023-05-10T09:27:58;0.40;;;0.40;;
15633;SDS011;14654;48.898;8.308;2023-05-10T09:30:25;0.70;;;0.60;;
15633;SDS011;14654;48.898;8.308;2023-05-10T09:32:52;1.63;;;0.70;;
15633;SDS011;14654;48.898;8.308;2023-05-10T09:35:19;0.80;;;0.80;;
15633;SDS011;14654;48.898;8.308;2023-05-10T09:37:48;1.00;;;0.70;;
15633;SDS011;14654;48.898;8.308;2023-05-10T09:40:19;2.27;;;0.70;;
15633;SDS011;14654;48.898;8.308;2023-05-10T09:42:52;0.90;;;0.77;;
15633;SDS011;14654;48.898;8.308;2023-05-10T09:45:18;1.17;;;0.80;;
15633;SDS011;14654;48.898;8.308;2023-05-10T09:47:43;0.90;;;0.60;;
15633;SDS011;14654;48.898;8.308;2023-05-10T09:50:09;0.90;;;0.80;;
15633;SDS011;14654;48.898;8.308;2023-05-10T09:55:20;2.50;;;0.77;;
15633;SDS011;14654;48.898;8.308;2023-05-10T09:57:47;1.63;;;0.90;;
15633;SDS011;14654;48.898;8.308;2023-05-10T10:00:17;1.07;;;0.63;;
15633;SDS011;14654;48.898;8.308;2023-05-10T10:02:48;1.07;;;0.80;;
15633;SDS011;14654;48.898;8.308;2023-05-10T10:05:19;1.30;;;1.20;;
15633;SDS011;14654;48.898;8.308;2023-05-10T10:07:44;2.60;;;1.27;;
15633;SDS011;14654;48.898;8.308;2023-05-10T10:10:10;1.40;;;1.17;;
15633;SDS011;14654;48.898;8.308;2023-05-10T10:12:37;1.90;;;1.20;;
15633;SDS011;14654;48.898;8.308;2023-05-10T10:15:04;2.53;;;1.23;;
15633;SDS011;14654;48.898;8.308;2023-05-10T10:17:30;1.70;;;1.37;;
15633;SDS011;14654;48.898;8.308;2023-05-10T10:19:57;1.37;;;1.13;;
15633;SDS011;14654;48.898;8.308;2023-05-10T10:22:22;1.23;;;1.10;;
15633;SDS011;14654;48.898;8.308;2023-05-10T10:24:47;2.03;;;1.40;;
15633;SDS011;14654;48.898;8.308;2023-05-10T10:27:21;1.87;;;1.20;;
15633;SDS011;14654;48.898;8.308;2023-05-10T10:30:07;1.40;;;1.30;;
15633;SDS011;14654;48.898;8.308;2023-05-10T10:35:33;1.23;;;1.10;;
15633;SDS011;14654;48.898;8.308;2023-05-10T10:38:00;1.70;;;1.40;;
15633;SDS011;14654;48.898;8.308;2023-05-10T10:40:29;2.03;;;1.40;;
15633;SDS011;14654;48.898;8.308;2023-05-10T10:42:56;2.30;;;1.30;;
15633;SDS011;14654;48.898;8.308;2023-05-10T10:45:22;1.73;;;1.13;;
15633;SDS011;14654;48.898;8.308;2023-05-10T10:47:48;1.50;;;1.40;;
15633;SDS011;14654;48.898;8.308;2023-05-10T10:50:14;2.33;;;1.23;;
15633;SDS011;14654;48.898;8.308;2023-05-10T10:52:43;1.50;;;1.20;;
15633;SDS011;14654;48.898;8.308;2023-05-10T10:55:16;1.23;;;1.13;;
15633;SDS011;14654;48.898;8.308;2023-05-10T11:00:20;1.17;;;0.80;;
15633;SDS011;14654;48.898;8.308;2023-05-10T11:02:46;0.80;;;0.77;;
15633;SDS011;14654;48.898;8.308;2023-05-10T11:07:54;0.77;;;0.77;;
15633;SDS011;14654;48.898;8.308;2023-05-10T11:10:20;1.97;;;0.90;;
15633;SDS011;14654;48.898;8.308;2023-05-10T11:17:58;0.97;;;0.73;;
15633;SDS011;14654;48.898;8.308;2023-05-10T11:20:27;1.30;;;0.60;;
15633;SDS011;14654;48.898;8.308;2023-05-10T11:22:58;2.43;;;0.90;;
15633;SDS011;14654;48.898;8.308;2023-05-10T11:25:40;1.13;;;0.63;;
15633;SDS011;14654;48.898;8.308;2023-05-10T11:28:06;2.03;;;0.80;;
15633;SDS011;14654;48.898;8.308;2023-05-10T11:30:31;1.73;;;0.93;;
15633;SDS011;14654;48.898;8.308;2023-05-10T11:32:57;1.20;;;0.73;;
15633;SDS011;14654;48.898;8.308;2023-05-10T11:35:22;1.33;;;0.50;;
15633;SDS011;14654;48.898;8.308;2023-05-10T11:37:47;3.37;;;0.90;;
15633;SDS011;14654;48.898;8.308;2023-05-10T11:40:13;2.40;;;0.70;;
15633;SDS011;14654;48.898;8.308;2023-05-10T11:42:39;1.60;;;0.70;;
15633;SDS011;14654;48.898;8.308;2023-05-10T11:45:05;0.90;;;0.50;;
15633;SDS011;14654;48.898;8.308;2023-05-10T11:47:31;0.80;;;0.50;;
15633;SDS011;14654;48.898;8.308;2023-05-10T11:49:56;3.23;;;0.90;;
15633;SDS011;14654;48.898;8.308;2023-05-10T11:52:22;0.83;;;0.50;;
15633;SDS011;14654;48.898;8.308;2023-05-10T11:54:51;1.00;;;0.50;;
15633;SDS011;14654;48.898;8.308;2023-05-10T11:57:21;1.23;;;0.70;;
15633;SDS011;14654;48.898;8.308;2023-05-10T11:59:55;1.77;;;0.50;;
15633;SDS011;14654;48.898;8.308;2023-05-10T12:02:21;1.17;;;0.70;;
15633;SDS011;14654;48.898;8.308;2023-05-10T12:04:46;0.40;;;0.37;;
15633;SDS011;14654;48.898;8.308;2023-05-10T12:07:12;0.63;;;0.60;;
15633;SDS011;14654;48.898;8.308;2023-05-10T12:09:42;0.90;;;0.60;;
15633;SDS011;14654;48.898;8.308;2023-05-10T12:12:08;0.97;;;0.60;;
15633;SDS011;14654;48.898;8.308;2023-05-10T12:14:34;0.70;;;0.70;;
15633;SDS011;14654;48.898;8.308;2023-05-10T12:17:00;2.10;;;0.60;;
15633;SDS011;14654;48.898;8.308;2023-05-10T12:19:25;0.43;;;0.40;;
15633;SDS011;14654;48.898;8.308;2023-05-10T12:21:50;1.00;;;0.60;;
15633;SDS011;14654;48.898;8.308;2023-05-10T12:24:16;0.50;;;0.40;;
15633;SDS011;14654;48.898;8.308;2023-05-10T12:26:42;2.83;;;0.50;;
15633;SDS011;14654;48.898;8.308;2023-05-10T12:34:29;1.90;;;0.50;;
15633;SDS011;14654;48.898;8.308;2023-05-10T12:36:56;0.83;;;0.60;;
15633;SDS011;14654;48.898;8.308;2023-05-10T12:39:22;0.97;;;0.50;;
15633;SDS011;14654;48.898;8.308;2023-05-10T12:41:47;1.77;;;0.67;;
15633;SDS011;14654;48.898;8.308;2023-05-10T12:44:12;1.30;;;0.80;;
15633;SDS011;14654;48.898;8.308;2023-05-10T12:46:38;1.70;;;0.87;;
15633;SDS011;14654;48.898;8.308;2023-05-10T12:49:03;1.50;;;0.80;;
15633;SDS011;14654;48.898;8.308;2023-05-10T12:51:28;1.50;;;0.90;;
15633;SDS011;14654;48.898;8.308;2023-05-10T12:53:54;1.93;;;0.80;;
15633;SDS011;14654;48.898;8.308;2023-05-10T12:56:20;1.03;;;0.70;;
15633;SDS011;14654;48.898;8.308;2023-05-10T12:58:45;1.10;;;0.80;;
15633;SDS011;14654;48.898;8.308;2023-05-10T13:01:13;1.27;;;0.93;;
15633;SDS011;14654;48.898;8.308;2023-05-10T13:03:41;2.13;;;1.40;;
15633;SDS011;14654;48.898;8.308;2023-05-10T13:06:08;1.87;;;1.17;;
15633;SDS011;14654;48.898;8.308;2023-05-10T13:08:33;0.73;;;0.67;;
15633;SDS011;14654;48.898;8.308;2023-05-10T13:11:01;0.93;;;0.70;;
15633;SDS011;14654;48.898;8.308;2023-05-10T13:13:27;1.13;;;0.70;;
15633;SDS011;14654;48.898;8.308;2023-05-10T13:15:53;0.93;;;0.60;;
15633;SDS011;14654;48.898;8.308;2023-05-10T13:18:18;1.23;;;0.40;;
15633;SDS011;14654;48.898;8.308;2023-05-10T13:20:43;1.00;;;0.60;;
15633;SDS011;14654;48.898;8.308;2023-05-10T13:23:09;1.20;;;0.70;;
15633;SDS011;14654;48.898;8.308;2023-05-10T13:25:35;0.80;;;0.50;;
15633;SDS011;14654;48.898;8.308;2023-05-10T13:28:01;0.60;;;0.60;;
15633;SDS011;14654;48.898;8.308;2023-05-10T13:30:26;0.50;;;0.50;;
15633;SDS011;14654;48.898;8.308;2023-05-10T13:32:52;0.60;;;0.50;;
15633;SDS011;14654;48.898;8.308;2023-05-10T13:35:17;0.50;;;0.50;;
15633;SDS011;14654;48.898;8.308;2023-05-10T13:37:42;1.80;;;0.50;;
15633;SDS011;14654;48.898;8.308;2023-05-10T13:40:08;1.57;;;0.77;;
15633;SDS011;14654;48.898;8.308;2023-05-10T13:42:33;0.80;;;0.50;;
15633;SDS011;14654;48.898;8.308;2023-05-10T13:45:07;0.70;;;0.40;;
15633;SDS011;14654;48.898;8.308;2023-05-10T13:47:33;0.30;;;0.30;;
15633;SDS011;14654;48.898;8.308;2023-05-10T13:49:58;1.10;;;0.37;;
15633;SDS011;14654;48.898;8.308;2023-05-10T13:52:23;0.93;;;0.60;;
15633;SDS011;14654;48.898;8.308;2023-05-10T13:54:49;0.70;;;0.37;;
15633;SDS011;14654;48.898;8.308;2023-05-10T13:57:14;0.73;;;0.60;;
15633;SDS011;14654;48.898;8.308;2023-05-10T13:59:41;1.37;;;0.70;;
15633;SDS011;14654;48.898;8.308;2023-05-10T14:02:07;2.47;;;1.30;;
15633;SDS011;14654;48.898;8.308;2023-05-10T14:04:32;2.33;;;1.00;;
15633;SDS011;14654;48.898;8.308;2023-05-10T14:06:59;1.60;;;0.90;;
15633;SDS011;14654;48.898;8.308;2023-05-10T14:09:24;1.87;;;0.77;;
15633;SDS011;14654;48.898;8.308;2023-05-10T14:11:49;1.77;;;0.60;;
15633;SDS011;14654;48.898;8.308;2023-05-10T14:14:15;0.60;;;0.60;;
15633;SDS011;14654;48.898;8.308;2023-05-10T14:16:41;1.23;;;0.70;;
15633;SDS011;14654;48.898;8.308;2023-05-10T14:19:07;1.57;;;0.50;;
15633;SDS011;14654;48.898;8.308;2023-05-10T14:21:33;0.93;;;0.80;;
15633;SDS011;14654;48.898;8.308;2023-05-10T14:23:58;1.60;;;0.90;;
15633;SDS011;14654;48.898;8.308;2023-05-10T14:26:23;1.53;;;0.70;;
15633;SDS011;14654;48.898;8.308;2023-05-10T14:28:49;0.70;;;0.53;;
15633;SDS011;14654;48.898;8.308;2023-05-10T14:31:14;0.70;;;0.60;;
15633;SDS011;14654;48.898;8.308;2023-05-10T14:33:41;0.90;;;0.50;;
15633;SDS011;14654;48.898;8.308;2023-05-10T14:36:07;1.23;;;0.47;;
15633;SDS011;14654;48.898;8.308;2023-05-10T14:38:33;1.40;;;0.80;;
15633;SDS011;14654;48.898;8.308;2023-05-10T14:40:58;1.03;;;0.67;;
15633;SDS011;14654;48.898;8.308;2023-05-10T14:43:23;0.83;;;0.63;;
15633;SDS011;14654;48.898;8.308;2023-05-10T14:45:49;2.47;;;0.90;;
15633;SDS011;14654;48.898;8.308;2023-05-10T14:48:14;2.50;;;0.80;;
15633;SDS011;14654;48.898;8.308;2023-05-10T14:50:42;0.53;;;0.53;;
15633;SDS011;14654;48.898;8.308;2023-05-10T14:53:08;0.90;;;0.50;;
15633;SDS011;14654;48.898;8.308;2023-05-10T14:55:33;2.13;;;0.60;;
15633;SDS011;14654;48.898;8.308;2023-05-10T14:57:59;0.57;;;0.50;;
15633;SDS011;14654;48.898;8.308;2023-05-10T15:00:24;1.30;;;0.40;;
15633;SDS011;14654;48.898;8.308;2023-05-10T15:02:50;1.20;;;0.40;;
15633;SDS011;14654;48.898;8.308;2023-05-10T15:05:15;0.80;;;0.60;;
15633;SDS011;14654;48.898;8.308;2023-05-10T15:07:41;0.60;;;0.43;;
15633;SDS011;14654;48.898;8.308;2023-05-10T15:10:08;0.73;;;0.47;;
15633;SDS011;14654;48.898;8.308;2023-05-10T15:12:34;1.60;;;0.70;;
15633;SDS011;14654;48.898;8.308;2023-05-10T15:14:59;0.50;;;0.33;;
15633;SDS011;14654;48.898;8.308;2023-05-10T15:17:25;0.70;;;0.60;;
15633;SDS011;14654;48.898;8.308;2023-05-10T15:19:50;1.00;;;0.80;;